createdAt,value
2022-10-02T00:00:41.608Z,247.63
2022-10-02T00:03:25.684Z,211.25
2022-10-02T00:05:57.769Z,274.42
2022-10-02T00:08:27.142Z,242.60
2022-10-02T00:10:55.824Z,216.18
2022-10-02T00:13:27.534Z,189.18
2022-10-02T00:15:54.733Z,204.38
2022-10-02T00:18:29.226Z,182.77
2022-10-02T00:21:05.076Z,188.98
2022-10-02T00:23:39.734Z,178.40
2022-10-02T00:26:14.107Z,161.90
2022-10-02T00:28:46.425Z,160.98
2022-10-02T00:31:15.926Z,160.35
2022-10-02T00:33:42.434Z,183.00
2022-10-02T00:36:08.829Z,155.88
2022-10-02T00:38:41.075Z,138.70
2022-10-02T00:41:10.286Z,156.55
2022-10-02T00:43:44.574Z,175.23
2022-10-02T00:46:26.387Z,176.38
2022-10-02T00:49:18.565Z,193.90
2022-10-02T00:52:08.312Z,183.65
2022-10-02T00:54:53.190Z,182.45
2022-10-02T00:57:22.232Z,164.50
2022-10-02T00:59:57.560Z,177.27
2022-10-02T01:02:24.122Z,154.38
2022-10-02T01:04:50.688Z,177.10
2022-10-02T01:07:17.233Z,182.07
2022-10-02T01:09:44.516Z,194.20
2022-10-02T01:12:11.650Z,163.80
2022-10-02T01:14:39.885Z,161.80
2022-10-02T01:17:07.437Z,138.20
2022-10-02T01:19:41.461Z,154.77
2022-10-02T01:22:23.063Z,180.00
2022-10-02T01:24:53.452Z,150.43
2022-10-02T01:27:19.953Z,194.95
2022-10-02T01:29:47.807Z,196.85
2022-10-02T01:32:14.371Z,162.82
2022-10-02T01:34:41.384Z,153.10
2022-10-02T01:37:08.634Z,185.82
2022-10-02T01:39:35.303Z,164.02
2022-10-02T01:42:01.799Z,211.85
2022-10-02T01:44:28.537Z,182.75
2022-10-02T01:47:04.489Z,172.63
2022-10-02T01:49:55.648Z,195.65
2022-10-02T01:52:24.967Z,196.77
2022-10-02T01:54:51.617Z,170.07
2022-10-02T01:57:30.236Z,205.70
2022-10-02T02:00:11.294Z,219.02
2022-10-02T02:02:43.162Z,170.65
2022-10-02T02:05:17.948Z,186.70
2022-10-02T02:07:47.257Z,173.07
2022-10-02T02:10:18.434Z,196.20
2022-10-02T02:12:57.064Z,192.73
2022-10-02T02:15:26.332Z,194.27
2022-10-02T02:17:56.827Z,201.93
2022-10-02T02:20:28.238Z,208.02
2022-10-02T02:22:55.965Z,204.52
2022-10-02T02:25:25.228Z,174.65
2022-10-02T02:28:03.403Z,200.80
2022-10-02T02:30:31.764Z,170.73
2022-10-02T02:33:02.002Z,177.27
2022-10-02T02:35:34.228Z,164.27
2022-10-02T02:38:04.216Z,170.15
2022-10-02T02:40:31.269Z,175.40
2022-10-02T02:43:05.137Z,181.80
2022-10-02T02:45:41.456Z,176.45
2022-10-02T02:48:10.420Z,180.35
2022-10-02T02:51:03.363Z,144.43
2022-10-02T02:53:31.923Z,188.05
2022-10-02T02:55:59.753Z,147.88
2022-10-02T02:58:26.151Z,155.63
2022-10-02T03:00:52.749Z,186.50
2022-10-02T03:03:19.191Z,149.15
2022-10-02T03:05:48.558Z,183.50
2022-10-02T03:08:18.733Z,184.88
2022-10-02T03:10:52.590Z,151.23
2022-10-02T03:13:26.734Z,176.65
2022-10-02T03:16:03.070Z,210.85
2022-10-02T03:18:32.333Z,162.75
2022-10-02T03:21:11.082Z,183.45
2022-10-02T03:24:00.771Z,154.20
2022-10-02T03:26:35.274Z,152.02
2022-10-02T03:29:03.310Z,160.27
2022-10-02T03:31:31.082Z,188.38
2022-10-02T03:33:58.917Z,188.32
2022-10-02T03:36:25.577Z,164.30
2022-10-02T03:39:12.937Z,195.23
2022-10-02T03:41:40.829Z,206.35
2022-10-02T03:44:07.232Z,172.23
2022-10-02T03:46:34.168Z,167.20
2022-10-02T03:49:01.004Z,197.30
2022-10-02T03:51:27.449Z,185.40
2022-10-02T03:53:54.034Z,183.48
2022-10-02T03:56:35.729Z,165.57
2022-10-02T03:59:05.339Z,158.07
2022-10-02T04:01:39.780Z,157.98
2022-10-02T04:04:10.294Z,188.50
2022-10-02T04:06:42.551Z,180.05
2022-10-02T04:09:18.726Z,198.15
2022-10-02T04:11:48.204Z,210.80
2022-10-02T04:14:24.120Z,180.38
2022-10-02T04:16:58.420Z,188.25
2022-10-02T04:19:34.166Z,178.77
2022-10-02T04:22:08.442Z,230.07
2022-10-02T04:24:34.910Z,173.45
2022-10-02T04:27:22.410Z,200.98
2022-10-02T04:29:55.070Z,213.55
2022-10-02T04:32:26.370Z,195.70
2022-10-02T04:34:53.059Z,205.68
2022-10-02T04:37:34.478Z,175.85
2022-10-02T04:40:13.767Z,212.38
2022-10-02T04:42:48.264Z,179.48
2022-10-02T04:45:21.048Z,179.45
2022-10-02T04:47:56.615Z,202.73
2022-10-02T04:50:23.010Z,199.00
2022-10-02T04:52:54.471Z,169.93
2022-10-02T04:55:23.685Z,202.63
2022-10-02T04:57:53.153Z,229.10
2022-10-02T05:00:20.663Z,186.90
2022-10-02T05:03:05.251Z,201.25
2022-10-02T05:05:50.222Z,193.70
2022-10-02T05:08:19.746Z,164.90
2022-10-02T05:10:49.049Z,188.35
2022-10-02T05:13:27.330Z,199.00
2022-10-02T05:16:12.451Z,216.27
2022-10-02T05:18:38.877Z,176.43
2022-10-02T05:21:24.965Z,154.45
2022-10-02T05:23:54.191Z,222.55
2022-10-02T05:26:28.340Z,173.55
2022-10-02T05:29:06.929Z,205.55
2022-10-02T05:31:51.981Z,190.80
2022-10-02T05:34:31.227Z,201.65
2022-10-02T05:37:06.741Z,231.18
2022-10-02T05:39:38.825Z,184.15
2022-10-02T05:42:05.263Z,208.55
2022-10-02T05:44:37.589Z,193.57
2022-10-02T05:47:10.009Z,205.13
2022-10-02T05:49:43.720Z,207.55
2022-10-02T05:52:17.963Z,189.77
2022-10-02T05:55:00.164Z,209.25
2022-10-02T05:57:32.535Z,187.23
2022-10-02T06:00:02.100Z,181.15
2022-10-02T06:02:50.035Z,198.50
2022-10-02T06:05:35.455Z,166.70
2022-10-02T06:08:03.930Z,169.93
2022-10-02T06:10:41.463Z,172.52
2022-10-02T06:13:13.761Z,151.35
2022-10-02T06:15:45.156Z,187.50
2022-10-02T06:18:31.870Z,197.05
2022-10-02T06:21:04.553Z,169.70
2022-10-02T06:23:34.161Z,186.18
2022-10-02T06:26:06.865Z,183.52
2022-10-02T06:28:54.223Z,159.00
2022-10-02T06:31:29.725Z,173.43
2022-10-02T06:33:56.748Z,182.55
2022-10-02T06:36:25.912Z,160.73
2022-10-02T06:38:55.292Z,142.05
2022-10-02T06:41:41.872Z,147.02
2022-10-02T06:44:14.887Z,123.80
2022-10-02T06:46:41.341Z,158.98
2022-10-02T06:49:13.913Z,178.65
2022-10-02T06:51:40.363Z,197.97
2022-10-02T06:54:19.400Z,185.20
2022-10-02T06:57:06.166Z,210.68
2022-10-02T06:59:54.893Z,206.13
2022-10-02T07:02:30.196Z,220.65
2022-10-02T07:04:56.647Z,203.43
2022-10-02T07:07:41.670Z,181.70
2022-10-02T07:10:28.731Z,173.70
2022-10-02T07:12:55.178Z,192.13
2022-10-02T07:15:35.687Z,192.02
2022-10-02T07:18:05.178Z,151.52
2022-10-02T07:20:34.140Z,162.68
2022-10-02T07:23:19.646Z,165.98
2022-10-02T07:25:51.953Z,181.63
2022-10-02T07:28:21.394Z,136.45
2022-10-02T07:31:08.230Z,177.60
2022-10-02T07:34:01.235Z,155.73
2022-10-02T07:36:39.881Z,175.25
2022-10-02T07:39:21.522Z,169.88
2022-10-02T07:42:06.326Z,183.57
2022-10-02T07:44:44.996Z,146.52
2022-10-02T07:47:22.094Z,176.75
2022-10-02T07:49:54.374Z,165.35
2022-10-02T07:52:29.315Z,140.45
2022-10-02T07:55:01.922Z,166.85
2022-10-02T07:57:31.270Z,158.50
2022-10-02T08:00:01.762Z,129.13
2022-10-02T08:02:56.839Z,149.75
2022-10-02T08:05:40.533Z,127.05
2022-10-02T08:08:12.133Z,119.40
2022-10-02T08:10:41.311Z,143.18
2022-10-02T08:13:15.709Z,164.50
2022-10-02T08:15:44.231Z,136.38
2022-10-02T08:18:34.658Z,114.50
2022-10-02T08:21:02.861Z,115.35
2022-10-02T08:23:33.925Z,90.22
2022-10-02T08:26:06.578Z,151.32
2022-10-02T08:28:49.283Z,95.90
2022-10-02T08:31:16.240Z,162.90
2022-10-02T08:33:43.292Z,127.72
2022-10-02T08:36:21.402Z,71.05
2022-10-02T08:38:54.592Z,93.57
2022-10-02T08:43:47.803Z,119.95
2022-10-02T08:46:14.403Z,75.85
2022-10-02T08:48:55.284Z,88.57
2022-10-02T08:51:40.364Z,93.68
2022-10-02T08:54:32.869Z,76.07
2022-10-02T08:57:18.129Z,89.18
2022-10-02T09:00:06.511Z,77.95
2022-10-02T09:02:57.905Z,72.20
2022-10-02T09:05:42.513Z,84.43
2022-10-02T09:08:30.175Z,69.13
2022-10-02T09:10:59.435Z,88.65
2022-10-02T09:13:46.050Z,66.13
2022-10-02T09:16:17.818Z,69.63
2022-10-02T09:18:47.365Z,59.22
2022-10-02T09:21:18.073Z,67.97
2022-10-02T09:23:50.509Z,89.90
2022-10-02T09:26:33.208Z,70.00
2022-10-02T09:29:12.003Z,94.53
2022-10-02T09:31:53.956Z,63.55
2022-10-02T09:34:26.354Z,67.20
2022-10-02T09:37:13.000Z,99.43
2022-10-02T09:39:39.466Z,70.32
2022-10-02T09:42:24.833Z,55.97
2022-10-02T09:45:00.955Z,61.08
2022-10-02T09:47:28.084Z,67.07
2022-10-02T09:49:54.512Z,79.63
2022-10-02T09:52:33.293Z,87.95
2022-10-02T09:55:20.953Z,95.85
2022-10-02T09:57:47.359Z,81.50
2022-10-02T10:00:51.319Z,62.20
2022-10-02T10:03:26.755Z,53.08
2022-10-02T10:06:11.380Z,74.20
2022-10-02T10:08:37.782Z,47.47
2022-10-02T10:11:19.795Z,79.68
2022-10-02T10:13:49.061Z,78.25
2022-10-02T10:16:33.715Z,67.13
2022-10-02T10:19:22.209Z,85.72
2022-10-02T10:22:07.426Z,78.45
2022-10-02T10:24:52.458Z,74.22
2022-10-02T10:27:18.883Z,60.00
2022-10-02T10:29:51.083Z,96.10
2022-10-02T10:32:17.527Z,69.35
2022-10-02T10:35:00.382Z,52.92
2022-10-02T10:37:45.626Z,55.90
2022-10-02T10:40:20.904Z,63.80
2022-10-02T10:43:08.550Z,73.47
2022-10-02T10:45:54.132Z,69.85
2022-10-02T10:48:20.958Z,71.03
2022-10-02T10:51:00.444Z,65.28
2022-10-02T10:53:45.394Z,83.90
2022-10-02T10:56:34.752Z,71.53
2022-10-02T10:59:01.158Z,64.13
2022-10-02T11:01:45.425Z,85.22
2022-10-02T11:04:39.303Z,68.63
2022-10-02T11:07:15.620Z,89.35
2022-10-02T11:09:42.186Z,63.70
2022-10-02T11:12:09.764Z,67.68
2022-10-02T11:14:51.964Z,42.55
2022-10-02T11:17:21.487Z,61.33
2022-10-02T11:20:00.111Z,84.90
2022-10-02T11:22:45.453Z,75.28
2022-10-02T11:25:18.358Z,63.70
2022-10-02T11:27:57.662Z,80.65
2022-10-02T11:30:44.458Z,75.38
2022-10-02T11:33:30.085Z,58.28
2022-10-02T11:36:17.049Z,54.65
2022-10-02T11:38:56.077Z,56.70
2022-10-02T11:41:32.106Z,76.32
2022-10-02T11:44:11.310Z,60.35
2022-10-02T11:46:55.961Z,72.80
2022-10-02T11:49:31.013Z,67.07
2022-10-02T11:51:57.500Z,89.68
2022-10-02T11:54:29.297Z,85.28
2022-10-02T11:57:14.308Z,63.03
2022-10-02T11:59:43.721Z,58.35
2022-10-02T12:02:39.102Z,45.15
2022-10-02T12:05:24.179Z,55.25
2022-10-02T12:08:01.579Z,85.65
2022-10-02T12:10:28.062Z,62.42
2022-10-02T12:13:04.543Z,84.28
2022-10-02T12:15:34.212Z,57.92
2022-10-02T12:18:06.224Z,40.08
2022-10-02T12:21:00.039Z,55.67
2022-10-02T12:24:25.103Z,145.02
2022-10-02T12:27:00.238Z,54.75
2022-10-02T12:29:32.394Z,76.07
2022-10-02T12:32:02.008Z,75.95
2022-10-02T12:34:34.235Z,57.67
2022-10-02T12:37:25.091Z,121.10
2022-10-02T12:40:10.185Z,108.78
2022-10-02T12:42:36.627Z,84.93
2022-10-02T12:45:21.621Z,56.05
2022-10-02T12:47:53.773Z,99.97
2022-10-02T12:50:27.967Z,55.35
2022-10-02T12:53:06.341Z,68.00
2022-10-02T12:55:42.451Z,73.57
2022-10-02T12:58:10.239Z,74.95
2022-10-02T13:00:45.753Z,67.82
2022-10-02T13:03:30.506Z,65.88
2022-10-02T13:06:01.905Z,82.82
2022-10-02T13:08:48.411Z,61.58
2022-10-02T13:11:18.023Z,86.82
2022-10-02T13:14:20.237Z,93.22
2022-10-02T13:16:46.818Z,63.80
2022-10-02T13:19:30.431Z,130.27
2022-10-02T13:22:14.500Z,144.93
2022-10-02T13:24:55.581Z,55.83
2022-10-02T13:27:31.345Z,51.85
2022-10-02T13:30:17.374Z,65.15
2022-10-02T13:32:54.040Z,51.85
2022-10-02T13:35:26.153Z,39.85
2022-10-02T13:37:58.567Z,84.70
2022-10-02T13:40:37.009Z,86.55
2022-10-02T13:43:19.146Z,67.82
2022-10-02T13:45:45.582Z,76.85
2022-10-02T13:48:22.356Z,102.28
2022-10-02T13:50:54.538Z,86.63
2022-10-02T13:53:46.025Z,64.60
2022-10-02T13:56:31.265Z,61.25
2022-10-02T13:59:06.530Z,52.13
2022-10-02T14:01:42.095Z,71.10
2022-10-02T14:04:19.731Z,52.78
2022-10-02T14:06:50.320Z,69.07
2022-10-02T14:09:19.534Z,61.00
2022-10-02T14:11:45.952Z,85.10
2022-10-02T14:14:28.341Z,51.40
2022-10-02T14:17:13.266Z,60.42
2022-10-02T14:19:42.675Z,57.80
2022-10-02T14:22:27.918Z,92.45
2022-10-02T14:25:00.474Z,86.88
2022-10-02T14:27:29.734Z,84.47
2022-10-02T14:30:00.024Z,64.13
2022-10-02T14:32:41.785Z,67.57
2022-10-02T14:35:23.064Z,43.60
2022-10-02T14:38:04.628Z,79.75
2022-10-02T14:40:51.312Z,41.20
2022-10-02T14:43:20.528Z,67.95
2022-10-02T14:45:58.502Z,81.18
2022-10-02T14:48:43.704Z,61.42
2022-10-02T14:51:28.853Z,52.63
2022-10-02T14:53:55.349Z,108.07
2022-10-02T14:56:30.724Z,74.53
2022-10-02T14:59:09.975Z,271.67
2022-10-02T15:01:45.222Z,105.53
2022-10-02T15:04:25.183Z,55.88
2022-10-02T15:06:57.997Z,68.60
2022-10-02T15:09:42.928Z,59.67
2022-10-02T15:12:14.040Z,62.67
2022-10-02T15:14:52.988Z,54.05
2022-10-02T15:17:41.327Z,66.30
2022-10-02T15:20:20.273Z,69.90
2022-10-02T15:22:54.185Z,71.53
2022-10-02T15:25:32.966Z,63.53
2022-10-02T15:28:18.363Z,91.05
2022-10-02T15:31:10.261Z,108.55
2022-10-02T15:33:36.963Z,78.43
2022-10-02T15:36:22.141Z,65.93
2022-10-02T15:39:03.537Z,43.15
2022-10-02T15:41:32.754Z,91.32
2022-10-02T15:44:17.685Z,86.90
2022-10-02T15:46:44.153Z,73.28
2022-10-02T15:49:19.355Z,85.40
2022-10-02T15:51:54.825Z,108.90
2022-10-02T15:54:39.265Z,82.13
2022-10-02T15:57:23.874Z,86.95
2022-10-02T15:59:59.173Z,99.97
2022-10-02T16:02:29.245Z,100.00
2022-10-02T16:05:08.494Z,83.30
2022-10-02T16:07:53.663Z,83.35
2022-10-02T16:10:23.109Z,63.35
2022-10-02T16:13:08.669Z,84.15
2022-10-02T16:15:37.872Z,86.93
2022-10-02T16:18:04.284Z,76.60
2022-10-02T16:20:49.242Z,53.22
2022-10-02T16:23:15.695Z,112.25
2022-10-02T16:25:42.251Z,88.80
2022-10-02T16:28:23.079Z,134.65
2022-10-02T16:30:49.578Z,85.22
2022-10-02T16:33:20.708Z,86.63
2022-10-02T16:35:51.365Z,122.75
2022-10-02T16:38:30.438Z,75.72
2022-10-02T16:40:57.111Z,90.25
2022-10-02T16:43:32.462Z,129.05
2022-10-02T16:46:03.424Z,144.25
2022-10-02T16:48:36.383Z,131.82
2022-10-02T16:51:15.449Z,85.40
2022-10-02T16:53:41.931Z,124.53
2022-10-02T16:56:12.165Z,122.25
2022-10-02T16:58:42.074Z,101.95
2022-10-02T17:01:59.488Z,119.82
2022-10-02T17:04:36.957Z,76.43
2022-10-02T17:07:15.199Z,144.38
2022-10-02T17:10:01.594Z,113.97
2022-10-02T17:12:34.765Z,140.70
2022-10-02T17:15:08.568Z,80.35
2022-10-02T17:17:53.784Z,112.28
2022-10-02T17:20:23.298Z,81.57
2022-10-02T17:23:07.041Z,92.32
2022-10-02T17:25:42.223Z,93.53
2022-10-02T17:28:08.663Z,93.90
2022-10-02T17:30:50.290Z,113.03
2022-10-02T17:33:21.712Z,91.45
2022-10-02T17:35:54.102Z,137.80
2022-10-02T17:38:24.126Z,104.55
2022-10-02T17:40:56.432Z,108.75
2022-10-02T17:43:31.364Z,96.63
2022-10-02T17:46:20.989Z,118.40
2022-10-02T17:49:12.811Z,88.38
2022-10-02T17:51:57.628Z,99.38
2022-10-02T17:54:58.003Z,111.63
2022-10-02T17:57:51.010Z,115.60
2022-10-02T18:00:23.895Z,100.53
2022-10-02T18:03:10.368Z,82.25
2022-10-02T18:05:55.414Z,108.95
2022-10-02T18:08:40.825Z,104.82
2022-10-02T18:11:09.734Z,95.55
2022-10-02T18:13:48.942Z,95.30
2022-10-02T18:16:22.226Z,93.53
2022-10-02T18:19:07.425Z,131.93
2022-10-02T18:24:06.704Z,91.53
2022-10-02T18:26:39.001Z,120.77
2022-10-02T18:29:05.406Z,105.78
2022-10-02T18:31:55.217Z,109.78
2022-10-02T18:34:26.672Z,119.45
2022-10-02T18:36:56.201Z,122.70
2022-10-02T18:39:49.076Z,85.55
2022-10-02T18:42:21.553Z,85.57
2022-10-02T18:45:06.374Z,123.15
2022-10-02T18:47:46.239Z,112.55
2022-10-02T18:50:18.513Z,97.00
2022-10-02T18:52:47.773Z,120.68
2022-10-02T18:55:23.060Z,94.57
2022-10-02T18:58:09.833Z,107.22
2022-10-02T19:00:54.770Z,85.72
2022-10-02T19:03:39.795Z,88.30
2022-10-02T19:06:12.502Z,80.35
2022-10-02T19:08:57.265Z,85.88
2022-10-02T19:11:28.190Z,80.00
2022-10-02T19:13:54.854Z,93.38
2022-10-02T19:16:25.229Z,109.40
2022-10-02T19:19:12.029Z,99.63
2022-10-02T19:21:38.710Z,143.35
2022-10-02T19:24:14.302Z,80.80
2022-10-02T19:26:44.562Z,80.88
2022-10-02T19:29:29.962Z,87.00
2022-10-02T19:31:57.840Z,106.05
2022-10-02T19:34:27.782Z,77.90
2022-10-02T19:36:54.989Z,113.10
2022-10-02T19:39:30.474Z,75.65
2022-10-02T19:41:58.890Z,97.78
2022-10-02T19:44:28.240Z,80.30
2022-10-02T19:46:57.620Z,73.80
2022-10-02T19:49:25.829Z,110.72
2022-10-02T19:51:53.268Z,87.45
2022-10-02T19:54:24.539Z,79.13
2022-10-02T19:56:54.268Z,102.13
2022-10-02T19:59:25.252Z,85.70
2022-10-02T20:01:52.937Z,73.68
2022-10-02T20:04:23.547Z,90.10
2022-10-02T20:06:55.058Z,72.25
2022-10-02T20:09:37.878Z,64.97
2022-10-02T20:12:11.843Z,71.85
2022-10-02T20:14:41.317Z,83.20
2022-10-02T20:17:09.770Z,53.22
2022-10-02T20:19:45.193Z,80.00
2022-10-02T20:22:23.933Z,128.35
2022-10-02T20:24:51.687Z,63.38
2022-10-02T20:27:22.138Z,83.93
2022-10-02T20:29:51.043Z,107.30
2022-10-02T20:32:21.263Z,61.38
2022-10-02T20:34:50.521Z,77.75
2022-10-02T20:37:26.197Z,76.38
2022-10-02T20:40:02.365Z,94.90
2022-10-02T20:42:44.557Z,96.90
2022-10-02T20:45:12.204Z,80.40
2022-10-02T20:47:57.328Z,76.63
2022-10-02T20:50:32.787Z,75.97
2022-10-02T20:53:17.700Z,84.05
2022-10-02T20:55:46.939Z,105.47
2022-10-02T20:58:19.229Z,67.57
2022-10-02T21:00:59.893Z,74.65
2022-10-02T21:03:38.566Z,76.20
2022-10-02T21:06:24.364Z,71.50
2022-10-02T21:09:09.663Z,81.63
2022-10-02T21:11:56.060Z,85.13
2022-10-02T21:14:25.527Z,68.05
2022-10-02T21:17:27.627Z,96.05
2022-10-02T21:20:05.794Z,109.07
2022-10-02T21:22:50.851Z,72.65
2022-10-02T21:25:26.342Z,63.03
2022-10-02T21:28:13.461Z,82.20
2022-10-02T21:30:52.011Z,84.50
2022-10-02T21:33:21.989Z,60.13
2022-10-02T21:35:54.313Z,103.15
2022-10-02T21:38:21.028Z,51.72
2022-10-02T21:41:00.250Z,61.08
2022-10-02T21:43:32.718Z,49.13
2022-10-02T21:45:59.558Z,91.95
2022-10-02T21:48:48.988Z,80.78
2022-10-02T21:51:27.791Z,45.38
2022-10-02T21:54:13.064Z,74.28
2022-10-02T21:56:52.372Z,73.32
2022-10-02T21:59:36.975Z,81.70
2022-10-02T22:04:38.226Z,71.15
2022-10-02T22:07:29.771Z,117.53
2022-10-02T22:10:11.015Z,81.30
2022-10-02T22:13:06.950Z,84.57
2022-10-02T22:15:51.857Z,83.00
2022-10-02T22:18:33.960Z,89.38
2022-10-02T22:21:03.719Z,101.82
2022-10-02T22:23:30.182Z,72.18
2022-10-02T22:25:56.817Z,102.82
2022-10-02T22:28:28.005Z,75.57
2022-10-02T22:30:54.563Z,92.22
2022-10-02T22:33:40.648Z,78.85
2022-10-02T22:36:10.204Z,81.10
2022-10-02T22:38:59.651Z,58.25
2022-10-02T22:41:36.091Z,75.90
2022-10-02T22:44:09.456Z,93.28
2022-10-02T22:46:46.981Z,75.28
2022-10-02T22:49:25.315Z,114.25
2022-10-02T22:52:04.958Z,132.23
2022-10-02T22:54:38.083Z,73.55
2022-10-02T22:57:08.433Z,87.07
2022-10-02T22:59:40.898Z,77.45
2022-10-02T23:02:14.410Z,70.97
2022-10-02T23:07:14.339Z,113.15
2022-10-02T23:12:14.960Z,75.70
2022-10-02T23:14:49.613Z,70.88
2022-10-02T23:17:16.056Z,91.65
2022-10-02T23:20:01.438Z,105.65
2022-10-02T23:22:33.748Z,74.00
2022-10-02T23:25:19.033Z,101.35
2022-10-02T23:27:53.332Z,91.60
2022-10-02T23:30:20.597Z,87.10
2022-10-02T23:32:55.978Z,76.40
2022-10-02T23:35:37.434Z,104.57
2022-10-02T23:38:07.758Z,65.97
2022-10-02T23:40:55.097Z,82.43
2022-10-02T23:43:32.838Z,76.82
2022-10-02T23:46:02.418Z,103.07
2022-10-02T23:48:29.738Z,68.97
2022-10-02T23:51:14.765Z,94.78
2022-10-02T23:53:41.294Z,87.35
2022-10-02T23:56:22.684Z,61.50
2022-10-02T23:59:07.590Z,91.63
